Icarus — D5AX3 — position and weather

sailwx.info

Track history (hours):
 
Tides and Currents Weather Stations Pressure Air Temp Water Temp Dewpoint Dewpoint Depression Visibility Wind Speed Wind Dir Waves Ship Positions

Icarus

Last reported at 2015-Oct-21 10:34 UTC. Time now 2016-May-29 17:13 UTC.
Position N 46°46' E 031°57'.
Warning: this ship's position is months out of date.

Length 225 m; draft 10.3 m.

Type: Cargo ship. MMSI: 636015464.

Date/timePositionNaut miles runAvg speedWind from/ knotsBaromVisibWave heightAir tempDewpointWater temp
2015-Oct-21 10:34N 46°46' E 031°57'0 0.0
2015-Oct-21 09:31N 46°46' E 031°57'0 0.0
2015-Oct-21 08:33N 46°46' E 031°57'0 0.0
2015-Oct-21 07:33N 46°46' E 031°57'0 0.0
2015-Oct-21 06:34N 46°46' E 031°57'0 0.0
2015-Oct-21 05:33N 46°46' E 031°57'0 0.0
2015-Oct-21 04:33N 46°46' E 031°57'0 0.0
2015-Oct-21 03:34N 46°46' E 031°57'0 0.0
2015-Oct-21 02:33N 46°46' E 031°57'0 0.0
2015-Oct-21 01:33N 46°46' E 031°57'0 0.0
2015-Oct-21 00:33N 46°46' E 031°57'0 0.0
2015-Oct-20 23:34N 46°46' E 031°57'0 0.0
2015-Oct-20 22:30N 46°46' E 031°57'0 0.0
2015-Oct-20 21:33N 46°46' E 031°57'0 0.0
2015-Oct-20 20:33N 46°46' E 031°57'0 0.0
2015-Oct-20 19:34N 46°46' E 031°57'0 0.0
2015-Oct-20 18:33N 46°46' E 031°57'0 0.0
2015-Oct-20 17:33N 46°46' E 031°57'0 0.0
2015-Oct-20 16:33N 46°46' E 031°57'2 2.0
2015-Oct-20 15:33N 46°45' E 031°55'6 5.8
2015-Oct-20 14:33N 46°39' E 031°55'9 8.6
2015-Oct-20 13:33N 46°36' E 031°44'32 4.3
2015-Oct-20 06:15N 46°20' E 031°04'0 0.1
2015-Oct-20 04:09N 46°20' E 031°04'0 0.0
2015-Oct-20 02:27N 46°20' E 031°04'0 0.0
2015-Oct-18 04:05N 46°20' E 031°04'0 0.0
2015-Oct-18 03:20N 46°20' E 031°04'0 0.0
2015-Oct-17 07:26N 46°20' E 031°04'0 0.0
2015-Oct-17 06:31N 46°20' E 031°04'0 0.0
2015-Oct-17 05:31N 46°20' E 031°04'0 0.0
2015-Oct-17 04:16N 46°20' E 031°04'0 0.0
2015-Oct-17 03:28N 46°20' E 031°04'0 0.0
2015-Oct-17 02:31N 46°20' E 031°04'0 0.0
2015-Oct-17 01:23N 46°20' E 031°04'0 0.0
2015-Oct-16 23:17N 46°20' E 031°04'0 0.0
2015-Oct-16 22:31N 46°20' E 031°04'4 0.3
2015-Oct-16 07:03N 46°24' E 031°05'  
Track history (hours):
 
Tides and Currents Weather Stations Pressure Air Temp Water Temp Dewpoint Dewpoint Depression Visibility Wind Speed Wind Dir Waves Ship Positions

Icarus

Last reported at 2015-Oct-21 10:34 UTC. Time now 2016-May-29 17:13 UTC.
Position N 46°46' E 031°57'.
Warning: this ship's position is months out of date.

Length 225 m; draft 10.3 m.

Type: Cargo ship. MMSI: 636015464.

Date/timePositionNaut miles runAvg speedWind from/ knotsBaromVisibWave heightAir tempDewpointWater temp
2015-Oct-21 10:34N 46°46' E 031°57'0 0.0
2015-Oct-21 09:31N 46°46' E 031°57'0 0.0
2015-Oct-21 08:33N 46°46' E 031°57'0 0.0
2015-Oct-21 07:33N 46°46' E 031°57'0 0.0
2015-Oct-21 06:34N 46°46' E 031°57'0 0.0
2015-Oct-21 05:33N 46°46' E 031°57'0 0.0
2015-Oct-21 04:33N 46°46' E 031°57'0 0.0
2015-Oct-21 03:34N 46°46' E 031°57'0 0.0
2015-Oct-21 02:33N 46°46' E 031°57'0 0.0
2015-Oct-21 01:33N 46°46' E 031°57'0 0.0
2015-Oct-21 00:33N 46°46' E 031°57'0 0.0
2015-Oct-20 23:34N 46°46' E 031°57'0 0.0
2015-Oct-20 22:30N 46°46' E 031°57'0 0.0
2015-Oct-20 21:33N 46°46' E 031°57'0 0.0
2015-Oct-20 20:33N 46°46' E 031°57'0 0.0
2015-Oct-20 19:34N 46°46' E 031°57'0 0.0
2015-Oct-20 18:33N 46°46' E 031°57'0 0.0
2015-Oct-20 17:33N 46°46' E 031°57'0 0.0
2015-Oct-20 16:33N 46°46' E 031°57'2 2.0
2015-Oct-20 15:33N 46°45' E 031°55'6 5.8
2015-Oct-20 14:33N 46°39' E 031°55'9 8.6
2015-Oct-20 13:33N 46°36' E 031°44'32 4.3
2015-Oct-20 06:15N 46°20' E 031°04'0 0.1
2015-Oct-20 04:09N 46°20' E 031°04'0 0.0
2015-Oct-20 02:27N 46°20' E 031°04'0 0.0
2015-Oct-18 04:05N 46°20' E 031°04'0 0.0
2015-Oct-18 03:20N 46°20' E 031°04'0 0.0
2015-Oct-17 07:26N 46°20' E 031°04'0 0.0
2015-Oct-17 06:31N 46°20' E 031°04'0 0.0
2015-Oct-17 05:31N 46°20' E 031°04'0 0.0
2015-Oct-17 04:16N 46°20' E 031°04'0 0.0
2015-Oct-17 03:28N 46°20' E 031°04'0 0.0
2015-Oct-17 02:31N 46°20' E 031°04'0 0.0
2015-Oct-17 01:23N 46°20' E 031°04'0 0.0
2015-Oct-16 23:17N 46°20' E 031°04'0 0.0
2015-Oct-16 22:31N 46°20' E 031°04'4 0.3
2015-Oct-16 07:03N 46°24' E 031°05'  

Dump ship's entire track history